sensor_id;sensor_type;location;lat;lon;timestamp;temperature;humidity
25951;DHT22;13748;52.240;6.002;2022-10-23T00:01:31;12.50;99.90
25951;DHT22;13748;52.240;6.002;2022-10-23T00:04:05;12.50;99.90
25951;DHT22;13748;52.240;6.002;2022-10-23T00:06:33;12.60;99.90
25951;DHT22;13748;52.240;6.002;2022-10-23T00:09:01;12.50;99.90
25951;DHT22;13748;52.240;6.002;2022-10-23T00:11:30;12.50;99.90
25951;DHT22;13748;52.240;6.002;2022-10-23T00:14:00;12.60;99.90
25951;DHT22;13748;52.240;6.002;2022-10-23T00:16:27;12.50;99.90
25951;DHT22;13748;52.240;6.002;2022-10-23T00:18:55;12.50;99.90
25951;DHT22;13748;52.240;6.002;2022-10-23T00:21:22;12.50;99.90
25951;DHT22;13748;52.240;6.002;2022-10-23T00:23:49;12.40;99.90
25951;DHT22;13748;52.240;6.002;2022-10-23T00:26:16;12.40;99.90
25951;DHT22;13748;52.240;6.002;2022-10-23T00:28:48;12.30;99.90
25951;DHT22;13748;52.240;6.002;2022-10-23T00:31:16;12.30;99.90
25951;DHT22;13748;52.240;6.002;2022-10-23T00:33:44;12.20;99.90
25951;DHT22;13748;52.240;6.002;2022-10-23T00:36:13;12.30;99.90
25951;DHT22;13748;52.240;6.002;2022-10-23T00:38:40;12.20;99.90
25951;DHT22;13748;52.240;6.002;2022-10-23T00:41:08;12.20;99.90
25951;DHT22;13748;52.240;6.002;2022-10-23T00:43:55;12.20;99.90
25951;DHT22;13748;52.240;6.002;2022-10-23T00:46:22;12.20;99.90
25951;DHT22;13748;52.240;6.002;2022-10-23T00:48:49;12.10;99.90
25951;DHT22;13748;52.240;6.002;2022-10-23T00:51:17;12.10;99.90
25951;DHT22;13748;52.240;6.002;2022-10-23T00:53:44;12.00;99.90
25951;DHT22;13748;52.240;6.002;2022-10-23T00:56:38;12.10;99.90
25951;DHT22;13748;52.240;6.002;2022-10-23T00:59:06;11.90;99.90
25951;DHT22;13748;52.240;6.002;2022-10-23T01:01:33;11.90;99.90
25951;DHT22;13748;52.240;6.002;2022-10-23T01:04:01;11.90;99.90
25951;DHT22;13748;52.240;6.002;2022-10-23T01:06:49;12.10;99.90
25951;DHT22;13748;52.240;6.002;2022-10-23T01:09:36;11.80;99.90
25951;DHT22;13748;52.240;6.002;2022-10-23T01:12:30;11.90;99.90
25951;DHT22;13748;52.240;6.002;2022-10-23T01:23:04;11.70;99.90
25951;DHT22;13748;52.240;6.002;2022-10-23T01:30:58;11.60;99.90
25951;DHT22;13748;52.240;6.002;2022-10-23T01:33:32;11.60;99.90
25951;DHT22;13748;52.240;6.002;2022-10-23T01:36:07;11.60;99.90
25951;DHT22;13748;52.240;6.002;2022-10-23T01:38:58;11.60;99.90
25951;DHT22;13748;52.240;6.002;2022-10-23T01:41:35;11.50;99.90
25951;DHT22;13748;52.240;6.002;2022-10-23T01:44:27;11.50;99.90
25951;DHT22;13748;52.240;6.002;2022-10-23T01:46:56;11.50;99.90
25951;DHT22;13748;52.240;6.002;2022-10-23T01:49:23;11.50;99.90
25951;DHT22;13748;52.240;6.002;2022-10-23T01:51:56;11.50;99.90
25951;DHT22;13748;52.240;6.002;2022-10-23T01:54:30;11.50;99.90
25951;DHT22;13748;52.240;6.002;2022-10-23T01:56:59;11.50;99.90
25951;DHT22;13748;52.240;6.002;2022-10-23T01:59:31;11.50;99.90
25951;DHT22;13748;52.240;6.002;2022-10-23T02:02:02;11.50;99.90
25951;DHT22;13748;52.240;6.002;2022-10-23T02:04:34;11.50;99.90
25951;DHT22;13748;52.240;6.002;2022-10-23T02:07:02;11.50;99.90
25951;DHT22;13748;52.240;6.002;2022-10-23T02:09:30;11.50;99.90
25951;DHT22;13748;52.240;6.002;2022-10-23T02:11:58;11.40;99.90
25951;DHT22;13748;52.240;6.002;2022-10-23T02:17:26;11.40;99.90
25951;DHT22;13748;52.240;6.002;2022-10-23T02:20:08;11.40;99.90
25951;DHT22;13748;52.240;6.002;2022-10-23T02:22:40;11.40;99.90
25951;DHT22;13748;52.240;6.002;2022-10-23T02:25:18;11.30;99.90
25951;DHT22;13748;52.240;6.002;2022-10-23T02:27:51;11.30;99.90
25951;DHT22;13748;52.240;6.002;2022-10-23T02:30:19;11.30;99.90
25951;DHT22;13748;52.240;6.002;2022-10-23T02:32:53;11.20;99.90
25951;DHT22;13748;52.240;6.002;2022-10-23T02:35:22;11.20;99.90
25951;DHT22;13748;52.240;6.002;2022-10-23T02:37:58;11.20;99.90
25951;DHT22;13748;52.240;6.002;2022-10-23T02:40:33;11.10;99.90
25951;DHT22;13748;52.240;6.002;2022-10-23T02:43:23;11.10;99.90
25951;DHT22;13748;52.240;6.002;2022-10-23T02:46:10;11.10;99.90
25951;DHT22;13748;52.240;6.002;2022-10-23T02:48:44;11.20;99.90
25951;DHT22;13748;52.240;6.002;2022-10-23T02:57:35;11.00;99.90
25951;DHT22;13748;52.240;6.002;2022-10-23T03:00:11;10.90;99.90
25951;DHT22;13748;52.240;6.002;2022-10-23T03:03:01;10.90;99.90
25951;DHT22;13748;52.240;6.002;2022-10-23T03:05:33;10.90;99.90
25951;DHT22;13748;52.240;6.002;2022-10-23T03:08:08;10.80;99.90
25951;DHT22;13748;52.240;6.002;2022-10-23T03:10:35;10.80;99.90
25951;DHT22;13748;52.240;6.002;2022-10-23T03:13:02;10.80;99.90
25951;DHT22;13748;52.240;6.002;2022-10-23T03:15:28;10.80;99.90
25951;DHT22;13748;52.240;6.002;2022-10-23T03:17:55;10.80;99.90
25951;DHT22;13748;52.240;6.002;2022-10-23T03:20:22;10.80;99.90
25951;DHT22;13748;52.240;6.002;2022-10-23T03:22:49;10.90;99.90
25951;DHT22;13748;52.240;6.002;2022-10-23T03:25:16;10.80;99.90
25951;DHT22;13748;52.240;6.002;2022-10-23T03:27:42;10.90;99.90
25951;DHT22;13748;52.240;6.002;2022-10-23T03:30:09;10.80;99.90
25951;DHT22;13748;52.240;6.002;2022-10-23T03:32:36;10.80;99.90
25951;DHT22;13748;52.240;6.002;2022-10-23T03:35:03;10.80;99.90
25951;DHT22;13748;52.240;6.002;2022-10-23T03:37:30;10.80;99.90
25951;DHT22;13748;52.240;6.002;2022-10-23T03:39:57;10.70;99.90
25951;DHT22;13748;52.240;6.002;2022-10-23T03:42:24;10.80;99.90
25951;DHT22;13748;52.240;6.002;2022-10-23T03:44:51;10.80;99.90
25951;DHT22;13748;52.240;6.002;2022-10-23T03:47:17;10.70;99.90
25951;DHT22;13748;52.240;6.002;2022-10-23T03:49:44;10.80;99.90
25951;DHT22;13748;52.240;6.002;2022-10-23T03:52:11;10.70;99.90
25951;DHT22;13748;52.240;6.002;2022-10-23T03:54:40;10.70;99.90
25951;DHT22;13748;52.240;6.002;2022-10-23T03:57:07;10.70;99.90
25951;DHT22;13748;52.240;6.002;2022-10-23T03:59:34;10.70;99.90
25951;DHT22;13748;52.240;6.002;2022-10-23T04:02:01;10.70;99.90
25951;DHT22;13748;52.240;6.002;2022-10-23T04:04:28;10.80;99.90
25951;DHT22;13748;52.240;6.002;2022-10-23T04:06:55;10.80;99.90
25951;DHT22;13748;52.240;6.002;2022-10-23T04:09:21;10.70;99.90
25951;DHT22;13748;52.240;6.002;2022-10-23T04:11:48;10.80;99.90
25951;DHT22;13748;52.240;6.002;2022-10-23T04:14:15;10.70;99.90
25951;DHT22;13748;52.240;6.002;2022-10-23T04:16:42;10.70;99.90
25951;DHT22;13748;52.240;6.002;2022-10-23T04:19:09;10.70;99.90
25951;DHT22;13748;52.240;6.002;2022-10-23T04:21:35;10.70;99.90
25951;DHT22;13748;52.240;6.002;2022-10-23T04:24:02;10.70;99.90
25951;DHT22;13748;52.240;6.002;2022-10-23T04:26:29;10.70;99.90
25951;DHT22;13748;52.240;6.002;2022-10-23T04:28:56;10.80;99.90
25951;DHT22;13748;52.240;6.002;2022-10-23T04:31:23;10.70;99.90
25951;DHT22;13748;52.240;6.002;2022-10-23T04:33:49;10.70;99.90
25951;DHT22;13748;52.240;6.002;2022-10-23T04:36:16;10.70;99.90
25951;DHT22;13748;52.240;6.002;2022-10-23T04:38:43;10.70;99.90
25951;DHT22;13748;52.240;6.002;2022-10-23T04:41:10;10.70;99.90
25951;DHT22;13748;52.240;6.002;2022-10-23T04:43:38;10.60;99.90
25951;DHT22;13748;52.240;6.002;2022-10-23T04:46:06;10.60;99.90
25951;DHT22;13748;52.240;6.002;2022-10-23T04:48:33;10.60;99.90
25951;DHT22;13748;52.240;6.002;2022-10-23T04:51:04;10.60;99.90
25951;DHT22;13748;52.240;6.002;2022-10-23T04:53:32;10.50;99.90
25951;DHT22;13748;52.240;6.002;2022-10-23T04:55:59;10.50;99.90
25951;DHT22;13748;52.240;6.002;2022-10-23T04:58:28;10.50;99.90
25951;DHT22;13748;52.240;6.002;2022-10-23T05:00:55;10.50;99.90
25951;DHT22;13748;52.240;6.002;2022-10-23T05:03:24;10.50;99.90
25951;DHT22;13748;52.240;6.002;2022-10-23T05:05:54;10.60;99.90
25951;DHT22;13748;52.240;6.002;2022-10-23T05:08:22;10.60;99.90
25951;DHT22;13748;52.240;6.002;2022-10-23T05:10:49;10.60;99.90
25951;DHT22;13748;52.240;6.002;2022-10-23T05:13:17;10.60;99.90
25951;DHT22;13748;52.240;6.002;2022-10-23T05:15:50;10.60;99.90
25951;DHT22;13748;52.240;6.002;2022-10-23T05:21:03;10.60;99.90
25951;DHT22;13748;52.240;6.002;2022-10-23T05:23:34;10.60;99.90
25951;DHT22;13748;52.240;6.002;2022-10-23T05:26:03;10.60;99.90
25951;DHT22;13748;52.240;6.002;2022-10-23T05:28:32;10.60;99.90
25951;DHT22;13748;52.240;6.002;2022-10-23T05:31:02;10.60;99.90
25951;DHT22;13748;52.240;6.002;2022-10-23T05:33:30;10.60;99.90
25951;DHT22;13748;52.240;6.002;2022-10-23T05:35:57;10.60;99.90
25951;DHT22;13748;52.240;6.002;2022-10-23T05:38:26;10.60;99.90
25951;DHT22;13748;52.240;6.002;2022-10-23T05:40:54;10.60;99.90
25951;DHT22;13748;52.240;6.002;2022-10-23T05:43:21;10.60;99.90
25951;DHT22;13748;52.240;6.002;2022-10-23T05:45:48;10.60;99.90
25951;DHT22;13748;52.240;6.002;2022-10-23T05:48:15;10.60;99.90
25951;DHT22;13748;52.240;6.002;2022-10-23T05:51:04;10.60;99.90
25951;DHT22;13748;52.240;6.002;2022-10-23T05:53:31;10.70;99.90
25951;DHT22;13748;52.240;6.002;2022-10-23T05:56:05;10.70;99.90
25951;DHT22;13748;52.240;6.002;2022-10-23T05:58:33;10.70;99.90
25951;DHT22;13748;52.240;6.002;2022-10-23T06:01:08;10.70;99.90
25951;DHT22;13748;52.240;6.002;2022-10-23T06:03:36;10.80;99.90
25951;DHT22;13748;52.240;6.002;2022-10-23T06:06:04;10.80;99.90
25951;DHT22;13748;52.240;6.002;2022-10-23T06:08:32;10.80;99.90
25951;DHT22;13748;52.240;6.002;2022-10-23T06:11:10;10.80;99.90
25951;DHT22;13748;52.240;6.002;2022-10-23T06:13:37;10.80;99.90
25951;DHT22;13748;52.240;6.002;2022-10-23T06:16:20;10.80;99.90
25951;DHT22;13748;52.240;6.002;2022-10-23T06:18:49;10.90;99.90
25951;DHT22;13748;52.240;6.002;2022-10-23T06:21:16;10.90;99.90
25951;DHT22;13748;52.240;6.002;2022-10-23T06:23:44;10.90;99.90
25951;DHT22;13748;52.240;6.002;2022-10-23T06:26:13;10.90;99.90
25951;DHT22;13748;52.240;6.002;2022-10-23T06:28:42;11.00;99.90
25951;DHT22;13748;52.240;6.002;2022-10-23T06:31:15;11.00;99.90
25951;DHT22;13748;52.240;6.002;2022-10-23T06:33:41;11.10;99.90
25951;DHT22;13748;52.240;6.002;2022-10-23T06:36:08;11.10;99.90
25951;DHT22;13748;52.240;6.002;2022-10-23T06:38:37;11.20;99.90
25951;DHT22;13748;52.240;6.002;2022-10-23T06:41:16;11.20;99.90
25951;DHT22;13748;52.240;6.002;2022-10-23T06:43:46;11.20;99.90
25951;DHT22;13748;52.240;6.002;2022-10-23T06:46:14;11.30;99.90
25951;DHT22;13748;52.240;6.002;2022-10-23T06:48:41;11.40;99.90
25951;DHT22;13748;52.240;6.002;2022-10-23T06:51:11;11.40;99.90
25951;DHT22;13748;52.240;6.002;2022-10-23T06:53:39;11.40;99.90
25951;DHT22;13748;52.240;6.002;2022-10-23T06:56:07;11.50;99.90
25951;DHT22;13748;52.240;6.002;2022-10-23T06:58:36;11.50;99.90
25951;DHT22;13748;52.240;6.002;2022-10-23T07:01:05;11.60;99.90
25951;DHT22;13748;52.240;6.002;2022-10-23T07:03:33;11.70;99.90
25951;DHT22;13748;52.240;6.002;2022-10-23T07:06:02;11.70;99.90
25951;DHT22;13748;52.240;6.002;2022-10-23T07:08:29;11.70;99.90
25951;DHT22;13748;52.240;6.002;2022-10-23T07:10:56;11.80;99.90
25951;DHT22;13748;52.240;6.002;2022-10-23T07:13:24;11.80;99.90
25951;DHT22;13748;52.240;6.002;2022-10-23T07:15:51;11.90;99.90
25951;DHT22;13748;52.240;6.002;2022-10-23T07:18:18;11.90;99.90
25951;DHT22;13748;52.240;6.002;2022-10-23T07:20:45;12.00;99.90
25951;DHT22;13748;52.240;6.002;2022-10-23T07:23:14;12.00;99.90
25951;DHT22;13748;52.240;6.002;2022-10-23T07:25:42;12.10;99.90
25951;DHT22;13748;52.240;6.002;2022-10-23T07:28:09;12.10;99.90
25951;DHT22;13748;52.240;6.002;2022-10-23T07:30:41;12.20;99.90
25951;DHT22;13748;52.240;6.002;2022-10-23T07:33:08;12.20;99.90
25951;DHT22;13748;52.240;6.002;2022-10-23T07:35:40;12.30;99.90
25951;DHT22;13748;52.240;6.002;2022-10-23T07:38:07;12.30;99.90
25951;DHT22;13748;52.240;6.002;2022-10-23T07:40:34;12.40;99.90
25951;DHT22;13748;52.240;6.002;2022-10-23T07:43:01;12.50;99.90
25951;DHT22;13748;52.240;6.002;2022-10-23T07:45:28;12.60;99.90
25951;DHT22;13748;52.240;6.002;2022-10-23T07:47:54;12.70;99.90
25951;DHT22;13748;52.240;6.002;2022-10-23T07:50:21;12.80;99.90
25951;DHT22;13748;52.240;6.002;2022-10-23T07:52:48;13.00;99.90
25951;DHT22;13748;52.240;6.002;2022-10-23T07:55:17;13.20;99.90
25951;DHT22;13748;52.240;6.002;2022-10-23T07:57:44;13.10;99.90
25951;DHT22;13748;52.240;6.002;2022-10-23T08:00:11;13.20;99.90
25951;DHT22;13748;52.240;6.002;2022-10-23T08:02:38;13.30;99.90
25951;DHT22;13748;52.240;6.002;2022-10-23T08:05:06;13.50;99.90
25951;DHT22;13748;52.240;6.002;2022-10-23T08:07:33;13.40;99.90
25951;DHT22;13748;52.240;6.002;2022-10-23T08:09:59;13.50;99.90
25951;DHT22;13748;52.240;6.002;2022-10-23T08:12:26;13.60;99.90
25951;DHT22;13748;52.240;6.002;2022-10-23T08:14:53;13.60;99.90
25951;DHT22;13748;52.240;6.002;2022-10-23T08:17:20;13.70;99.90
25951;DHT22;13748;52.240;6.002;2022-10-23T08:19:51;13.80;99.90
25951;DHT22;13748;52.240;6.002;2022-10-23T08:22:18;13.90;99.90
25951;DHT22;13748;52.240;6.002;2022-10-23T08:24:45;13.90;99.90
25951;DHT22;13748;52.240;6.002;2022-10-23T08:27:11;14.00;99.90
25951;DHT22;13748;52.240;6.002;2022-10-23T08:29:38;14.00;99.90
25951;DHT22;13748;52.240;6.002;2022-10-23T08:32:07;14.10;99.90
25951;DHT22;13748;52.240;6.002;2022-10-23T08:34:34;14.10;99.90
25951;DHT22;13748;52.240;6.002;2022-10-23T08:37:03;14.20;99.90
25951;DHT22;13748;52.240;6.002;2022-10-23T08:39:30;14.20;99.90
25951;DHT22;13748;52.240;6.002;2022-10-23T08:41:56;14.30;99.90
25951;DHT22;13748;52.240;6.002;2022-10-23T08:44:39;14.30;99.90
25951;DHT22;13748;52.240;6.002;2022-10-23T08:47:17;14.30;99.90
25951;DHT22;13748;52.240;6.002;2022-10-23T08:49:50;14.40;99.90
25951;DHT22;13748;52.240;6.002;2022-10-23T08:52:24;14.50;99.90
25951;DHT22;13748;52.240;6.002;2022-10-23T08:55:15;14.50;99.90
25951;DHT22;13748;52.240;6.002;2022-10-23T08:57:50;14.60;99.90
25951;DHT22;13748;52.240;6.002;2022-10-23T09:00:18;14.70;99.90
25951;DHT22;13748;52.240;6.002;2022-10-23T09:02:47;14.70;99.90
25951;DHT22;13748;52.240;6.002;2022-10-23T09:05:56;14.70;99.90
25951;DHT22;13748;52.240;6.002;2022-10-23T09:11:22;14.90;99.90
25951;DHT22;13748;52.240;6.002;2022-10-23T09:14:08;14.90;99.90
25951;DHT22;13748;52.240;6.002;2022-10-23T09:19:16;15.00;99.90
25951;DHT22;13748;52.240;6.002;2022-10-23T09:21:46;15.20;99.90
25951;DHT22;13748;52.240;6.002;2022-10-23T09:24:19;15.10;99.90
25951;DHT22;13748;52.240;6.002;2022-10-23T09:26:48;15.20;99.90
25951;DHT22;13748;52.240;6.002;2022-10-23T09:29:26;15.20;99.90
25951;DHT22;13748;52.240;6.002;2022-10-23T09:31:59;15.30;99.90
25951;DHT22;13748;52.240;6.002;2022-10-23T09:34:29;15.40;99.90
25951;DHT22;13748;52.240;6.002;2022-10-23T09:36:59;15.40;99.90
25951;DHT22;13748;52.240;6.002;2022-10-23T09:39:29;15.50;99.90
25951;DHT22;13748;52.240;6.002;2022-10-23T09:41:57;15.50;99.90
25951;DHT22;13748;52.240;6.002;2022-10-23T09:44:30;15.50;99.90
25951;DHT22;13748;52.240;6.002;2022-10-23T09:49:33;15.70;99.90
25951;DHT22;13748;52.240;6.002;2022-10-23T09:54:44;15.80;99.90
25951;DHT22;13748;52.240;6.002;2022-10-23T09:57:41;15.80;99.90
25951;DHT22;13748;52.240;6.002;2022-10-23T10:02:55;15.90;99.90
25951;DHT22;13748;52.240;6.002;2022-10-23T10:05:31;15.90;99.90
25951;DHT22;13748;52.240;6.002;2022-10-23T10:08:02;15.90;99.90
25951;DHT22;13748;52.240;6.002;2022-10-23T10:10:38;15.80;99.90
25951;DHT22;13748;52.240;6.002;2022-10-23T10:16:59;15.80;99.90
25951;DHT22;13748;52.240;6.002;2022-10-23T10:24:51;15.90;99.90
25951;DHT22;13748;52.240;6.002;2022-10-23T10:30:21;15.90;99.90
25951;DHT22;13748;52.240;6.002;2022-10-23T10:33:03;15.90;99.90
25951;DHT22;13748;52.240;6.002;2022-10-23T10:38:46;16.00;99.90
25951;DHT22;13748;52.240;6.002;2022-10-23T10:44:40;16.20;99.90
25951;DHT22;13748;52.240;6.002;2022-10-23T10:47:20;16.20;99.90
25951;DHT22;13748;52.240;6.002;2022-10-23T10:55:17;16.40;99.90
25951;DHT22;13748;52.240;6.002;2022-10-23T10:58:00;16.40;99.90
25951;DHT22;13748;52.240;6.002;2022-10-23T11:00:30;16.50;99.90
25951;DHT22;13748;52.240;6.002;2022-10-23T11:03:21;16.60;99.90
25951;DHT22;13748;52.240;6.002;2022-10-23T11:05:51;16.60;99.90
25951;DHT22;13748;52.240;6.002;2022-10-23T11:08:37;16.90;99.90
25951;DHT22;13748;52.240;6.002;2022-10-23T11:11:31;16.60;99.90
25951;DHT22;13748;52.240;6.002;2022-10-23T11:14:01;16.60;99.90
25951;DHT22;13748;52.240;6.002;2022-10-23T11:16:36;16.70;99.90
25951;DHT22;13748;52.240;6.002;2022-10-23T11:22:10;16.70;99.90
25951;DHT22;13748;52.240;6.002;2022-10-23T11:24:58;16.70;99.90
25951;DHT22;13748;52.240;6.002;2022-10-23T11:28:14;16.70;99.90
25951;DHT22;13748;52.240;6.002;2022-10-23T11:36:47;16.90;99.90
25951;DHT22;13748;52.240;6.002;2022-10-23T11:39:27;17.00;99.90
25951;DHT22;13748;52.240;6.002;2022-10-23T11:44:38;17.10;99.90
25951;DHT22;13748;52.240;6.002;2022-10-23T11:47:34;17.10;99.90
25951;DHT22;13748;52.240;6.002;2022-10-23T11:52:38;16.80;99.90
25951;DHT22;13748;52.240;6.002;2022-10-23T11:55:24;17.30;99.90
25951;DHT22;13748;52.240;6.002;2022-10-23T12:00:33;17.40;99.90
25951;DHT22;13748;52.240;6.002;2022-10-23T12:03:01;17.40;99.90
25951;DHT22;13748;52.240;6.002;2022-10-23T12:05:34;17.50;99.90
25951;DHT22;13748;52.240;6.002;2022-10-23T12:08:06;17.60;99.90
25951;DHT22;13748;52.240;6.002;2022-10-23T12:10:43;17.70;99.90
25951;DHT22;13748;52.240;6.002;2022-10-23T12:16:07;17.90;99.90
25951;DHT22;13748;52.240;6.002;2022-10-23T12:18:51;17.80;99.90
25951;DHT22;13748;52.240;6.002;2022-10-23T12:21:21;17.90;99.90
25951;DHT22;13748;52.240;6.002;2022-10-23T12:24:28;18.00;99.90
25951;DHT22;13748;52.240;6.002;2022-10-23T12:27:05;18.00;99.90
25951;DHT22;13748;52.240;6.002;2022-10-23T12:29:59;18.10;99.90
25951;DHT22;13748;52.240;6.002;2022-10-23T12:33:06;18.20;99.90
25951;DHT22;13748;52.240;6.002;2022-10-23T12:38:46;18.40;99.90
25951;DHT22;13748;52.240;6.002;2022-10-23T12:41:23;18.50;99.90
25951;DHT22;13748;52.240;6.002;2022-10-23T12:43:55;18.50;99.90
25951;DHT22;13748;52.240;6.002;2022-10-23T12:48:56;18.50;99.90
25951;DHT22;13748;52.240;6.002;2022-10-23T12:51:26;18.90;99.90
25951;DHT22;13748;52.240;6.002;2022-10-23T12:53:53;18.60;99.90
25951;DHT22;13748;52.240;6.002;2022-10-23T12:56:21;18.60;99.90
25951;DHT22;13748;52.240;6.002;2022-10-23T12:58:54;18.60;99.90
25951;DHT22;13748;52.240;6.002;2022-10-23T13:03:55;18.60;99.90
25951;DHT22;13748;52.240;6.002;2022-10-23T13:06:23;18.60;99.90
25951;DHT22;13748;52.240;6.002;2022-10-23T13:08:51;18.60;99.90
25951;DHT22;13748;52.240;6.002;2022-10-23T13:11:19;18.60;99.90
25951;DHT22;13748;52.240;6.002;2022-10-23T13:13:47;18.60;99.90
25951;DHT22;13748;52.240;6.002;2022-10-23T13:16:25;18.60;99.90
25951;DHT22;13748;52.240;6.002;2022-10-23T13:18:53;18.60;99.90
25951;DHT22;13748;52.240;6.002;2022-10-23T13:21:25;18.70;99.90
25951;DHT22;13748;52.240;6.002;2022-10-23T13:23:53;18.70;99.90
25951;DHT22;13748;52.240;6.002;2022-10-23T13:26:33;18.80;99.90
25951;DHT22;13748;52.240;6.002;2022-10-23T13:29:01;18.80;99.90
25951;DHT22;13748;52.240;6.002;2022-10-23T13:31:35;18.80;99.90
25951;DHT22;13748;52.240;6.002;2022-10-23T13:34:03;18.80;99.90
25951;DHT22;13748;52.240;6.002;2022-10-23T13:36:34;18.80;99.90
25951;DHT22;13748;52.240;6.002;2022-10-23T13:39:12;18.90;99.90
25951;DHT22;13748;52.240;6.002;2022-10-23T13:41:42;18.90;99.90
25951;DHT22;13748;52.240;6.002;2022-10-23T13:44:15;18.90;99.90
25951;DHT22;13748;52.240;6.002;2022-10-23T13:46:42;18.50;99.90
25951;DHT22;13748;52.240;6.002;2022-10-23T13:49:09;18.90;99.90
25951;DHT22;13748;52.240;6.002;2022-10-23T13:51:41;18.90;99.90
25951;DHT22;13748;52.240;6.002;2022-10-23T13:54:14;18.90;99.90
25951;DHT22;13748;52.240;6.002;2022-10-23T13:56:41;18.90;99.90
25951;DHT22;13748;52.240;6.002;2022-10-23T13:59:09;18.90;99.90
25951;DHT22;13748;52.240;6.002;2022-10-23T14:01:36;18.90;99.90
25951;DHT22;13748;52.240;6.002;2022-10-23T14:04:05;18.90;99.90
25951;DHT22;13748;52.240;6.002;2022-10-23T14:06:33;19.00;99.90
25951;DHT22;13748;52.240;6.002;2022-10-23T14:09:00;19.00;99.90
25951;DHT22;13748;52.240;6.002;2022-10-23T14:11:26;19.00;99.90
25951;DHT22;13748;52.240;6.002;2022-10-23T14:13:54;19.00;99.90
25951;DHT22;13748;52.240;6.002;2022-10-23T14:16:21;19.00;99.90
25951;DHT22;13748;52.240;6.002;2022-10-23T14:18:48;19.00;99.90
25951;DHT22;13748;52.240;6.002;2022-10-23T14:21:17;19.10;99.90
25951;DHT22;13748;52.240;6.002;2022-10-23T14:23:46;19.00;99.90
25951;DHT22;13748;52.240;6.002;2022-10-23T14:26:15;19.00;99.90
25951;DHT22;13748;52.240;6.002;2022-10-23T14:28:42;19.00;99.90
25951;DHT22;13748;52.240;6.002;2022-10-23T14:31:11;19.00;99.90
25951;DHT22;13748;52.240;6.002;2022-10-23T14:33:39;19.00;99.90
25951;DHT22;13748;52.240;6.002;2022-10-23T14:36:06;19.20;99.90
25951;DHT22;13748;52.240;6.002;2022-10-23T14:38:34;19.00;99.90
25951;DHT22;13748;52.240;6.002;2022-10-23T14:41:01;19.00;99.90
25951;DHT22;13748;52.240;6.002;2022-10-23T14:43:28;19.00;99.90
25951;DHT22;13748;52.240;6.002;2022-10-23T14:45:55;19.00;99.90
25951;DHT22;13748;52.240;6.002;2022-10-23T14:48:22;19.00;99.90
25951;DHT22;13748;52.240;6.002;2022-10-23T14:50:48;19.00;99.90
25951;DHT22;13748;52.240;6.002;2022-10-23T14:53:15;19.00;99.90
25951;DHT22;13748;52.240;6.002;2022-10-23T14:55:42;18.90;99.90
25951;DHT22;13748;52.240;6.002;2022-10-23T14:58:09;19.00;99.90
25951;DHT22;13748;52.240;6.002;2022-10-23T15:00:36;19.00;99.90
25951;DHT22;13748;52.240;6.002;2022-10-23T15:03:03;18.90;99.90
25951;DHT22;13748;52.240;6.002;2022-10-23T15:05:29;19.00;99.90
25951;DHT22;13748;52.240;6.002;2022-10-23T15:07:56;19.00;99.90
25951;DHT22;13748;52.240;6.002;2022-10-23T15:10:24;18.90;99.90
25951;DHT22;13748;52.240;6.002;2022-10-23T15:12:51;18.80;99.90
25951;DHT22;13748;52.240;6.002;2022-10-23T15:15:18;18.80;99.90
25951;DHT22;13748;52.240;6.002;2022-10-23T15:17:44;18.80;99.90
25951;DHT22;13748;52.240;6.002;2022-10-23T15:20:11;18.70;99.90
25951;DHT22;13748;52.240;6.002;2022-10-23T15:22:38;18.70;99.90
25951;DHT22;13748;52.240;6.002;2022-10-23T15:25:05;18.70;99.90
25951;DHT22;13748;52.240;6.002;2022-10-23T15:27:32;18.60;99.90
25951;DHT22;13748;52.240;6.002;2022-10-23T15:29:59;18.60;99.90
25951;DHT22;13748;52.240;6.002;2022-10-23T15:32:25;18.60;99.90
25951;DHT22;13748;52.240;6.002;2022-10-23T15:34:52;18.50;99.90
25951;DHT22;13748;52.240;6.002;2022-10-23T15:37:21;18.50;99.90
25951;DHT22;13748;52.240;6.002;2022-10-23T15:39:48;18.50;99.90
25951;DHT22;13748;52.240;6.002;2022-10-23T15:42:15;18.50;99.90
25951;DHT22;13748;52.240;6.002;2022-10-23T15:44:44;17.70;99.90
25951;DHT22;13748;52.240;6.002;2022-10-23T15:47:12;18.40;99.90
25951;DHT22;13748;52.240;6.002;2022-10-23T15:49:39;18.40;99.90
25951;DHT22;13748;52.240;6.002;2022-10-23T15:52:05;18.30;99.90
25951;DHT22;13748;52.240;6.002;2022-10-23T15:54:39;18.30;99.90
25951;DHT22;13748;52.240;6.002;2022-10-23T15:57:05;18.30;99.90
25951;DHT22;13748;52.240;6.002;2022-10-23T15:59:32;18.20;99.90
25951;DHT22;13748;52.240;6.002;2022-10-23T16:01:59;18.20;99.90
25951;DHT22;13748;52.240;6.002;2022-10-23T16:04:26;18.10;99.90
25951;DHT22;13748;52.240;6.002;2022-10-23T16:06:54;18.10;99.90
25951;DHT22;13748;52.240;6.002;2022-10-23T16:09:20;18.10;99.90
25951;DHT22;13748;52.240;6.002;2022-10-23T16:11:47;18.00;99.90
25951;DHT22;13748;52.240;6.002;2022-10-23T16:14:15;17.90;99.90
25951;DHT22;13748;52.240;6.002;2022-10-23T16:16:43;17.90;99.90
25951;DHT22;13748;52.240;6.002;2022-10-23T16:19:10;17.80;99.90
25951;DHT22;13748;52.240;6.002;2022-10-23T16:21:38;18.00;99.90
25951;DHT22;13748;52.240;6.002;2022-10-23T16:24:06;17.90;99.90
25951;DHT22;13748;52.240;6.002;2022-10-23T16:26:34;17.80;99.90
25951;DHT22;13748;52.240;6.002;2022-10-23T16:29:04;19.10;99.90
25951;DHT22;13748;52.240;6.002;2022-10-23T16:31:31;17.90;99.90
25951;DHT22;13748;52.240;6.002;2022-10-23T16:33:59;18.80;99.90
25951;DHT22;13748;52.240;6.002;2022-10-23T16:36:28;18.10;99.90
25951;DHT22;13748;52.240;6.002;2022-10-23T16:38:55;16.90;99.90
25951;DHT22;13748;52.240;6.002;2022-10-23T16:41:22;17.50;99.90
25951;DHT22;13748;52.240;6.002;2022-10-23T16:43:49;17.70;99.90
25951;DHT22;13748;52.240;6.002;2022-10-23T16:46:19;18.00;99.90
25951;DHT22;13748;52.240;6.002;2022-10-23T16:48:47;17.70;99.90
25951;DHT22;13748;52.240;6.002;2022-10-23T16:51:17;17.90;99.90
25951;DHT22;13748;52.240;6.002;2022-10-23T16:53:44;17.60;99.90
25951;DHT22;13748;52.240;6.002;2022-10-23T16:56:15;17.70;99.90
25951;DHT22;13748;52.240;6.002;2022-10-23T16:58:42;17.80;99.90
25951;DHT22;13748;52.240;6.002;2022-10-23T17:01:16;17.70;99.90
25951;DHT22;13748;52.240;6.002;2022-10-23T17:03:45;17.60;99.90
25951;DHT22;13748;52.240;6.002;2022-10-23T17:06:16;17.50;99.90
25951;DHT22;13748;52.240;6.002;2022-10-23T17:08:44;17.60;99.90
25951;DHT22;13748;52.240;6.002;2022-10-23T17:13:42;18.30;99.90
25951;DHT22;13748;52.240;6.002;2022-10-23T17:16:14;17.30;99.90
25951;DHT22;13748;52.240;6.002;2022-10-23T17:18:43;17.30;99.90
25951;DHT22;13748;52.240;6.002;2022-10-23T17:21:12;17.20;99.90
25951;DHT22;13748;52.240;6.002;2022-10-23T17:23:40;17.00;99.90
25951;DHT22;13748;52.240;6.002;2022-10-23T17:26:10;17.20;99.90